createdAt,value
2017-09-06T00:01:34.788Z,82.60
2017-09-06T00:04:02.300Z,82.80
2017-09-06T00:06:29.850Z,83.00
2017-09-06T00:08:57.399Z,82.90
2017-09-06T00:11:24.997Z,83.10
2017-09-06T00:13:52.528Z,83.10
2017-09-06T00:16:20.070Z,82.90
2017-09-06T00:18:47.649Z,82.90
2017-09-06T00:21:15.280Z,83.10
2017-09-06T00:23:42.815Z,83.20
2017-09-06T00:26:10.326Z,83.30
2017-09-06T00:28:37.861Z,83.10
2017-09-06T00:31:05.419Z,83.20
2017-09-06T00:33:32.963Z,83.30
2017-09-06T00:36:00.502Z,83.10
2017-09-06T00:38:28.057Z,83.30
2017-09-06T00:40:55.594Z,83.40
2017-09-06T00:43:23.121Z,83.60
2017-09-06T00:45:50.787Z,83.40
2017-09-06T00:48:18.344Z,83.50
2017-09-06T00:50:45.897Z,83.00
2017-09-06T00:53:13.443Z,83.20
2017-09-06T00:55:41.027Z,83.30
2017-09-06T00:58:08.704Z,83.30
2017-09-06T01:00:36.250Z,83.40
2017-09-06T01:03:03.809Z,83.60
2017-09-06T01:05:31.373Z,83.50
2017-09-06T01:07:58.927Z,83.30
2017-09-06T01:10:26.497Z,83.30
2017-09-06T01:12:54.044Z,83.40
2017-09-06T01:15:21.592Z,83.40
2017-09-06T01:17:49.159Z,83.30
2017-09-06T01:20:16.714Z,83.40
2017-09-06T01:22:44.272Z,83.40
2017-09-06T01:25:11.840Z,83.20
2017-09-06T01:27:39.394Z,83.30
2017-09-06T01:30:06.983Z,83.60
2017-09-06T01:32:34.550Z,83.60
2017-09-06T01:35:02.113Z,83.60
2017-09-06T01:37:29.645Z,83.70
2017-09-06T01:39:57.207Z,83.60
2017-09-06T01:42:24.767Z,83.80
2017-09-06T01:44:52.335Z,83.90
2017-09-06T01:47:19.869Z,83.90
2017-09-06T01:49:47.471Z,84.00
2017-09-06T01:52:14.988Z,83.90
2017-09-06T01:54:42.532Z,83.90
2017-09-06T01:57:10.129Z,84.10
2017-09-06T01:59:37.686Z,84.20
2017-09-06T02:02:05.212Z,84.20
2017-09-06T02:04:32.781Z,84.50
2017-09-06T02:07:01.357Z,84.70
2017-09-06T02:09:28.891Z,84.60
2017-09-06T02:11:56.442Z,84.80
2017-09-06T02:14:23.951Z,84.80
2017-09-06T02:16:51.485Z,84.90
2017-09-06T02:19:19.011Z,85.10
2017-09-06T02:21:46.556Z,85.10
2017-09-06T02:24:14.076Z,85.20
2017-09-06T02:26:41.625Z,85.20
2017-09-06T02:29:09.163Z,85.10
2017-09-06T02:31:36.709Z,85.20
2017-09-06T02:34:04.289Z,85.30
2017-09-06T02:36:31.845Z,85.50
2017-09-06T02:38:59.392Z,85.60
2017-09-06T02:41:26.938Z,85.50
2017-09-06T02:43:54.501Z,85.70
2017-09-06T02:46:22.064Z,85.60
2017-09-06T02:48:49.619Z,85.70
2017-09-06T02:51:17.143Z,85.80
2017-09-06T02:53:44.683Z,86.00
2017-09-06T02:56:12.230Z,86.00
2017-09-06T02:58:39.778Z,86.00
2017-09-06T03:01:07.311Z,86.00
2017-09-06T03:03:34.876Z,86.20
2017-09-06T03:06:02.400Z,86.00
2017-09-06T03:08:29.928Z,86.00
2017-09-06T03:10:57.515Z,85.90
2017-09-06T03:13:28.518Z,86.00
2017-09-06T03:15:56.074Z,86.00
2017-09-06T03:18:23.610Z,86.10
2017-09-06T03:20:51.200Z,85.90
2017-09-06T03:23:18.739Z,85.90
2017-09-06T03:25:46.304Z,86.20
2017-09-06T03:28:13.842Z,86.10
2017-09-06T03:30:41.424Z,86.00
2017-09-06T03:33:08.952Z,86.10
2017-09-06T03:35:36.471Z,86.00
2017-09-06T03:38:04.040Z,86.00
2017-09-06T03:40:31.590Z,85.70
2017-09-06T03:42:59.151Z,85.90
2017-09-06T03:45:26.758Z,86.00
2017-09-06T03:47:54.314Z,86.00
2017-09-06T03:50:21.835Z,85.80
2017-09-06T03:52:49.377Z,85.70
2017-09-06T03:55:16.911Z,85.70
2017-09-06T03:57:44.470Z,85.60
2017-09-06T04:00:12.007Z,85.70
2017-09-06T04:02:39.563Z,85.60
2017-09-06T04:05:07.096Z,85.60
2017-09-06T04:07:34.611Z,85.70
2017-09-06T04:10:02.152Z,85.90
2017-09-06T04:12:29.719Z,85.90
2017-09-06T04:14:57.283Z,86.10
2017-09-06T04:17:24.834Z,86.10
2017-09-06T04:19:52.380Z,86.10
2017-09-06T04:22:19.958Z,86.20
2017-09-06T04:24:47.499Z,88.00
2017-09-06T04:27:15.018Z,89.60
2017-09-06T04:29:42.579Z,90.60
2017-09-06T04:32:10.108Z,91.10
2017-09-06T04:34:37.677Z,91.90
2017-09-06T04:37:05.225Z,92.70
2017-09-06T04:39:32.773Z,93.30
2017-09-06T04:42:02.263Z,93.60
2017-09-06T04:44:29.805Z,94.20
2017-09-06T04:46:57.375Z,94.50
2017-09-06T04:49:24.921Z,94.20
2017-09-06T04:51:52.488Z,94.40
2017-09-06T04:54:20.052Z,94.50
2017-09-06T04:56:47.608Z,94.40
2017-09-06T04:59:15.156Z,94.60
2017-09-06T05:01:42.765Z,95.00
2017-09-06T05:04:10.370Z,94.70
2017-09-06T05:06:37.928Z,95.00
2017-09-06T05:09:05.493Z,95.20
2017-09-06T05:11:33.059Z,95.10
2017-09-06T05:14:00.603Z,95.60
2017-09-06T05:16:28.143Z,95.10
2017-09-06T05:18:55.728Z,95.20
2017-09-06T05:21:23.270Z,95.10
2017-09-06T05:23:51.616Z,95.00
2017-09-06T05:26:19.162Z,95.30
2017-09-06T05:28:46.703Z,95.50
2017-09-06T05:31:14.251Z,95.30
2017-09-06T05:33:41.831Z,95.50
2017-09-06T05:36:09.375Z,95.50
2017-09-06T05:38:36.936Z,95.60
2017-09-06T05:41:04.522Z,95.90
2017-09-06T05:43:32.063Z,96.10
2017-09-06T05:45:59.625Z,95.90
2017-09-06T05:48:27.178Z,95.70
2017-09-06T05:50:54.734Z,96.10
2017-09-06T05:53:22.293Z,96.30
2017-09-06T05:55:49.849Z,95.80
2017-09-06T05:58:17.388Z,96.00
2017-09-06T06:00:44.920Z,96.30
2017-09-06T06:03:12.579Z,96.00
2017-09-06T06:05:40.128Z,96.10
2017-09-06T06:08:07.673Z,95.90
2017-09-06T06:10:35.216Z,95.50
2017-09-06T06:13:02.784Z,95.90
2017-09-06T06:15:30.470Z,95.70
2017-09-06T06:17:58.089Z,95.60
2017-09-06T06:20:25.632Z,95.90
2017-09-06T06:22:53.192Z,95.50
2017-09-06T06:25:20.750Z,95.70
2017-09-06T06:27:48.300Z,96.70
2017-09-06T06:30:15.846Z,96.40
2017-09-06T06:32:43.462Z,96.60
2017-09-06T06:35:11.022Z,96.90
2017-09-06T06:37:38.619Z,97.10
2017-09-06T06:40:06.168Z,97.80
2017-09-06T06:42:33.698Z,98.00
2017-09-06T06:45:01.262Z,97.90
2017-09-06T06:47:28.836Z,98.50
2017-09-06T06:49:56.388Z,98.90
2017-09-06T06:52:23.920Z,98.70
2017-09-06T06:54:51.472Z,99.10
2017-09-06T06:57:19.004Z,99.00
2017-09-06T06:59:46.576Z,99.40
2017-09-06T07:02:14.139Z,99.30
2017-09-06T07:04:41.811Z,99.40
2017-09-06T07:07:09.388Z,99.30
2017-09-06T07:09:36.943Z,99.40
2017-09-06T07:12:04.511Z,99.70
2017-09-06T07:14:32.055Z,99.80
2017-09-06T07:16:59.626Z,99.50
2017-09-06T07:19:27.178Z,99.50
2017-09-06T07:21:54.759Z,99.40
2017-09-06T07:24:22.284Z,99.20
2017-09-06T07:26:49.857Z,99.30
2017-09-06T07:29:17.406Z,99.20
2017-09-06T07:31:44.955Z,99.20
2017-09-06T07:34:12.537Z,99.40
2017-09-06T07:36:40.095Z,99.40
2017-09-06T07:39:07.680Z,99.70
2017-09-06T07:41:35.215Z,99.40
2017-09-06T07:44:02.761Z,99.30
2017-09-06T07:46:30.304Z,99.30
2017-09-06T07:48:57.880Z,99.10
2017-09-06T07:51:25.429Z,98.80
2017-09-06T07:53:52.999Z,98.50
2017-09-06T07:56:20.570Z,97.20
2017-09-06T07:58:48.136Z,97.20
2017-09-06T08:01:15.665Z,97.80
2017-09-06T08:03:43.238Z,97.80
2017-09-06T08:06:10.781Z,98.50
2017-09-06T08:08:38.316Z,98.70
2017-09-06T08:11:05.947Z,98.60
2017-09-06T08:13:33.492Z,98.60
2017-09-06T08:16:01.055Z,98.90
2017-09-06T08:18:28.659Z,98.90
2017-09-06T08:20:56.222Z,98.20
2017-09-06T08:23:23.770Z,98.30
2017-09-06T08:25:51.326Z,97.90
2017-09-06T08:28:18.920Z,98.10
2017-09-06T08:30:46.497Z,98.90
2017-09-06T08:33:14.049Z,99.10
2017-09-06T08:35:41.657Z,98.60
2017-09-06T08:38:09.223Z,98.40
2017-09-06T08:40:36.778Z,98.30
2017-09-06T08:43:04.341Z,98.60
2017-09-06T08:45:31.876Z,98.60
2017-09-06T08:47:59.451Z,98.50
2017-09-06T08:50:26.988Z,98.60
2017-09-06T08:52:54.555Z,98.00
2017-09-06T08:55:22.102Z,97.90
2017-09-06T08:57:49.668Z,97.70
2017-09-06T09:00:17.222Z,97.50
2017-09-06T09:02:44.775Z,98.20
2017-09-06T09:05:12.318Z,97.00
2017-09-06T09:07:39.881Z,97.70
2017-09-06T09:10:07.435Z,98.00
2017-09-06T09:12:34.979Z,98.10
2017-09-06T09:15:02.589Z,97.80
2017-09-06T09:17:30.732Z,97.60
2017-09-06T09:19:58.303Z,97.40
2017-09-06T09:22:25.855Z,97.40
2017-09-06T09:24:53.399Z,97.80
2017-09-06T09:27:20.940Z,95.80
2017-09-06T09:29:48.491Z,95.40
2017-09-06T09:32:16.053Z,95.80
2017-09-06T09:34:43.593Z,95.40
2017-09-06T09:37:12.181Z,95.30
2017-09-06T09:39:39.733Z,93.50
2017-09-06T09:42:07.290Z,93.00
2017-09-06T09:44:34.823Z,94.40
2017-09-06T09:47:02.387Z,93.50
2017-09-06T09:49:31.896Z,94.30
2017-09-06T09:51:59.989Z,93.30
2017-09-06T09:54:28.169Z,91.80
2017-09-06T09:56:55.757Z,94.10
2017-09-06T09:59:23.285Z,93.70
2017-09-06T10:01:50.834Z,93.80
2017-09-06T10:04:20.380Z,93.30
2017-09-06T10:06:47.966Z,93.70
2017-09-06T10:09:15.522Z,92.30
2017-09-06T10:11:43.057Z,93.30
2017-09-06T10:14:10.603Z,90.80
2017-09-06T10:16:38.174Z,91.70
2017-09-06T10:19:05.758Z,90.80
2017-09-06T10:21:33.292Z,90.80
2017-09-06T10:24:00.843Z,90.20
2017-09-06T10:26:28.389Z,90.20
2017-09-06T10:28:55.937Z,89.50
2017-09-06T10:31:23.471Z,88.10
2017-09-06T10:33:51.783Z,87.70
2017-09-06T10:36:19.319Z,88.40
2017-09-06T10:38:47.170Z,87.80
2017-09-06T10:41:14.754Z,88.80
2017-09-06T10:43:42.289Z,90.10
2017-09-06T10:46:09.848Z,90.60
2017-09-06T10:48:37.379Z,90.20
2017-09-06T10:51:04.952Z,89.30
2017-09-06T10:53:32.517Z,91.50
2017-09-06T10:56:00.086Z,92.30
2017-09-06T10:58:28.594Z,88.20
2017-09-06T11:00:56.154Z,85.50
2017-09-06T11:03:23.696Z,85.80
2017-09-06T11:05:51.294Z,84.40
2017-09-06T11:08:18.836Z,83.80
2017-09-06T11:10:46.355Z,86.40
2017-09-06T11:13:13.908Z,89.00
2017-09-06T11:15:41.418Z,88.10
2017-09-06T11:18:08.968Z,83.00
2017-09-06T11:20:37.341Z,83.40
2017-09-06T11:23:04.883Z,80.70
2017-09-06T11:25:32.393Z,81.80
2017-09-06T11:27:59.979Z,82.50
2017-09-06T11:30:27.936Z,80.80
2017-09-06T11:32:55.540Z,79.40
2017-09-06T11:35:23.085Z,79.70
2017-09-06T11:37:50.609Z,77.00
2017-09-06T11:40:18.169Z,79.30
2017-09-06T11:42:45.711Z,80.00
2017-09-06T11:45:13.270Z,79.70
2017-09-06T11:47:40.839Z,80.20
2017-09-06T11:50:08.414Z,78.00
2017-09-06T11:52:35.960Z,80.10
2017-09-06T11:55:03.543Z,78.70
2017-09-06T11:57:31.110Z,77.10
2017-09-06T11:59:59.695Z,77.50
2017-09-06T12:02:27.999Z,77.30
2017-09-06T12:04:55.569Z,77.10
2017-09-06T12:07:23.129Z,75.30
2017-09-06T12:09:50.709Z,76.90
2017-09-06T12:12:18.246Z,77.00
2017-09-06T12:14:45.787Z,76.20
2017-09-06T12:17:13.334Z,76.90
2017-09-06T12:19:40.853Z,75.80
2017-09-06T12:22:08.393Z,73.80
2017-09-06T12:24:35.937Z,76.30
2017-09-06T12:27:03.507Z,74.80
2017-09-06T12:29:31.026Z,76.80
2017-09-06T12:31:59.758Z,77.40
2017-09-06T12:34:27.895Z,76.10
2017-09-06T12:36:55.452Z,76.80
2017-09-06T12:39:22.982Z,76.50
2017-09-06T12:41:50.507Z,76.10
2017-09-06T12:44:18.054Z,77.40
2017-09-06T12:46:45.635Z,76.70
2017-09-06T12:49:13.192Z,76.00
2017-09-06T12:51:40.735Z,74.90
2017-09-06T12:54:08.272Z,73.40
2017-09-06T12:56:35.808Z,74.30
2017-09-06T12:59:03.343Z,74.60
2017-09-06T13:01:30.856Z,72.90
2017-09-06T13:03:58.418Z,69.20
2017-09-06T13:06:25.972Z,69.80
2017-09-06T13:08:53.523Z,69.20
2017-09-06T13:11:21.054Z,69.20
2017-09-06T13:13:48.675Z,69.30
2017-09-06T13:16:16.226Z,70.80
2017-09-06T13:18:43.861Z,70.00
2017-09-06T13:21:11.403Z,70.80
2017-09-06T13:23:38.924Z,69.70
2017-09-06T13:26:06.518Z,70.40
2017-09-06T13:28:34.218Z,71.30
2017-09-06T13:31:01.882Z,72.10
2017-09-06T13:33:30.467Z,72.40
2017-09-06T13:35:59.349Z,72.20
2017-09-06T13:38:26.871Z,72.50
2017-09-06T13:40:54.427Z,72.40
2017-09-06T13:43:21.954Z,72.40
2017-09-06T13:45:49.503Z,73.20
2017-09-06T13:48:17.313Z,73.30
2017-09-06T13:50:44.855Z,74.00
2017-09-06T13:53:12.614Z,74.40
2017-09-06T13:55:40.155Z,73.80
2017-09-06T13:58:07.706Z,73.80
2017-09-06T14:00:35.250Z,74.80
2017-09-06T14:03:02.926Z,74.90
2017-09-06T14:05:30.523Z,74.90
2017-09-06T14:07:59.358Z,75.60
2017-09-06T14:10:26.878Z,75.50
2017-09-06T14:13:06.305Z,75.70
2017-09-06T14:15:33.850Z,75.90
2017-09-06T14:18:01.395Z,76.30
2017-09-06T14:20:30.365Z,74.70
2017-09-06T14:22:58.518Z,73.00
2017-09-06T14:25:26.071Z,71.60
2017-09-06T14:27:53.595Z,71.20
2017-09-06T14:30:21.162Z,70.30
2017-09-06T14:32:48.709Z,70.00
2017-09-06T14:35:16.268Z,70.00
2017-09-06T14:37:43.793Z,71.60
2017-09-06T14:40:11.360Z,70.20
2017-09-06T14:42:38.903Z,69.40
2017-09-06T14:45:06.434Z,69.60
2017-09-06T14:47:34.133Z,70.70
2017-09-06T14:50:01.648Z,69.80
2017-09-06T14:52:30.345Z,72.00
2017-09-06T14:54:58.598Z,71.20
2017-09-06T14:57:26.150Z,71.40
2017-09-06T14:59:53.905Z,71.30
2017-09-06T15:02:21.448Z,70.80
2017-09-06T15:04:48.972Z,71.50
2017-09-06T15:07:16.558Z,71.80
2017-09-06T15:09:46.234Z,72.30
2017-09-06T15:12:13.871Z,73.10
2017-09-06T15:14:41.430Z,72.90
2017-09-06T15:17:08.967Z,73.50
2017-09-06T15:19:36.531Z,73.50
2017-09-06T15:22:04.155Z,72.60
2017-09-06T15:24:31.730Z,73.20
2017-09-06T15:27:00.632Z,72.40
2017-09-06T15:29:28.986Z,72.20
2017-09-06T15:31:56.517Z,72.80
2017-09-06T15:34:24.080Z,72.40
2017-09-06T15:36:51.604Z,71.90
2017-09-06T15:39:19.170Z,71.90
2017-09-06T15:41:46.742Z,71.80
2017-09-06T15:44:14.296Z,72.10
2017-09-06T15:46:41.847Z,71.30
2017-09-06T15:49:09.403Z,73.00
2017-09-06T15:51:37.053Z,72.80
2017-09-06T15:54:04.579Z,71.20
2017-09-06T15:56:32.163Z,71.70
2017-09-06T15:58:59.703Z,70.90
2017-09-06T16:01:27.996Z,70.20
2017-09-06T16:03:55.551Z,71.30
2017-09-06T16:06:23.085Z,71.10
2017-09-06T16:08:50.620Z,72.00
2017-09-06T16:11:18.153Z,71.90
2017-09-06T16:13:47.682Z,71.40
2017-09-06T16:16:16.416Z,71.90
2017-09-06T16:18:44.046Z,73.30
2017-09-06T16:21:11.643Z,71.40
2017-09-06T16:23:39.206Z,71.10
2017-09-06T16:26:06.766Z,71.30
2017-09-06T16:28:34.334Z,70.80
2017-09-06T16:31:03.786Z,69.80
2017-09-06T16:33:31.598Z,70.90
2017-09-06T16:35:59.872Z,71.50
2017-09-06T16:38:28.409Z,70.50
2017-09-06T16:40:56.567Z,70.00
2017-09-06T16:43:24.095Z,71.30
2017-09-06T16:45:51.840Z,71.40
2017-09-06T16:48:19.371Z,71.90
2017-09-06T16:50:47.008Z,71.40
2017-09-06T16:53:14.555Z,71.40
2017-09-06T16:55:42.169Z,71.70
2017-09-06T16:58:09.728Z,71.70
2017-09-06T17:00:37.271Z,71.60
2017-09-06T17:03:04.910Z,70.50
2017-09-06T17:05:32.590Z,71.70
2017-09-06T17:08:00.181Z,70.60
2017-09-06T17:10:27.752Z,70.80
2017-09-06T17:12:55.330Z,70.50
2017-09-06T17:15:23.920Z,69.50
2017-09-06T17:17:51.479Z,69.20
2017-09-06T17:20:19.023Z,68.30
2017-09-06T17:22:46.599Z,69.20
2017-09-06T17:25:14.242Z,69.00
2017-09-06T17:27:41.796Z,69.70
2017-09-06T17:30:09.352Z,69.70
2017-09-06T17:32:36.870Z,69.20
2017-09-06T17:35:04.434Z,70.80
2017-09-06T17:37:32.033Z,70.20
2017-09-06T17:40:00.353Z,70.70
2017-09-06T17:42:28.913Z,70.20
2017-09-06T17:44:56.505Z,69.60
2017-09-06T17:47:24.070Z,70.40
2017-09-06T17:49:51.627Z,71.30
2017-09-06T17:52:19.168Z,70.30
2017-09-06T17:54:46.759Z,70.90
2017-09-06T17:57:14.289Z,70.50
2017-09-06T17:59:41.849Z,69.90
2017-09-06T18:02:09.399Z,70.40
2017-09-06T18:04:37.006Z,71.40
2017-09-06T18:07:04.557Z,71.40
2017-09-06T18:09:32.112Z,72.30
2017-09-06T18:12:00.758Z,71.70
2017-09-06T18:14:30.022Z,72.00
2017-09-06T18:16:58.079Z,72.30
2017-09-06T18:19:25.607Z,72.70
2017-09-06T18:21:53.159Z,73.80
2017-09-06T18:24:20.689Z,73.30
2017-09-06T18:26:48.270Z,72.90
2017-09-06T18:29:15.818Z,72.70
2017-09-06T18:31:43.358Z,72.50
2017-09-06T18:34:10.917Z,72.90
2017-09-06T18:36:38.452Z,71.80
2017-09-06T18:39:06.013Z,71.70
2017-09-06T18:41:33.546Z,71.40
2017-09-06T18:44:01.407Z,71.80
2017-09-06T18:46:30.084Z,71.60
2017-09-06T18:48:58.107Z,70.50
2017-09-06T18:51:25.642Z,71.80
2017-09-06T18:53:53.211Z,71.50
2017-09-06T18:56:20.727Z,70.90
2017-09-06T18:58:48.290Z,71.40
2017-09-06T19:01:15.836Z,71.40
2017-09-06T19:03:43.463Z,71.50
2017-09-06T19:06:11.027Z,71.90
2017-09-06T19:08:38.578Z,71.50
2017-09-06T19:11:06.373Z,72.20
2017-09-06T19:13:33.910Z,72.20
2017-09-06T19:16:01.466Z,72.20
2017-09-06T19:18:30.193Z,72.40
2017-09-06T19:20:58.214Z,72.40
2017-09-06T19:23:25.739Z,72.40
2017-09-06T19:25:53.277Z,72.20
2017-09-06T19:28:20.852Z,72.00
2017-09-06T19:30:48.400Z,72.30
2017-09-06T19:33:15.956Z,72.40
2017-09-06T19:35:43.490Z,73.00
2017-09-06T19:38:11.059Z,72.90
2017-09-06T19:40:38.591Z,72.90
2017-09-06T19:43:06.281Z,73.30
2017-09-06T19:45:33.812Z,72.90
2017-09-06T19:48:01.391Z,73.40
2017-09-06T19:50:29.625Z,73.50
2017-09-06T19:52:57.143Z,73.90
2017-09-06T19:55:24.694Z,73.50
2017-09-06T19:57:52.260Z,73.50
2017-09-06T20:00:19.814Z,74.20
2017-09-06T20:02:47.355Z,74.30
2017-09-06T20:05:14.911Z,74.20
2017-09-06T20:07:42.431Z,74.80
2017-09-06T20:10:10.013Z,75.10
2017-09-06T20:12:37.530Z,74.30
2017-09-06T20:15:05.066Z,74.80
2017-09-06T20:17:32.685Z,74.60
2017-09-06T20:20:00.526Z,74.80
2017-09-06T20:22:29.227Z,74.90
2017-09-06T20:24:56.784Z,75.20
2017-09-06T20:27:24.399Z,75.10
2017-09-06T20:29:51.923Z,75.00
2017-09-06T20:32:19.482Z,75.10
2017-09-06T20:34:47.010Z,75.20
2017-09-06T20:37:14.532Z,75.30
2017-09-06T20:39:42.133Z,75.50
2017-09-06T20:42:09.710Z,75.80
2017-09-06T20:44:37.408Z,75.60
2017-09-06T20:47:04.943Z,76.20
2017-09-06T20:49:32.471Z,75.70
2017-09-06T20:51:59.982Z,76.00
2017-09-06T20:54:28.331Z,76.00
2017-09-06T20:56:55.875Z,76.60
2017-09-06T20:59:23.414Z,76.80
2017-09-06T21:01:50.956Z,76.80
2017-09-06T21:04:18.624Z,76.80
2017-09-06T21:06:46.160Z,77.80
2017-09-06T21:09:13.680Z,77.90
2017-09-06T21:11:41.205Z,78.90
2017-09-06T21:14:08.749Z,79.50
2017-09-06T21:16:36.293Z,79.20
2017-09-06T21:19:03.842Z,80.20
2017-09-06T21:21:31.410Z,80.80
2017-09-06T21:23:59.568Z,81.10
2017-09-06T21:26:27.096Z,81.10
2017-09-06T21:28:54.646Z,81.50
2017-09-06T21:31:22.177Z,81.80
2017-09-06T21:33:50.365Z,82.40
2017-09-06T21:36:17.883Z,82.00
2017-09-06T21:38:45.398Z,81.80
2017-09-06T21:41:12.954Z,81.10
2017-09-06T21:43:40.467Z,80.90
2017-09-06T21:46:08.024Z,81.20
2017-09-06T21:48:35.554Z,81.80
2017-09-06T21:51:03.107Z,81.90
2017-09-06T21:53:30.631Z,81.60
2017-09-06T21:55:58.702Z,82.20
2017-09-06T21:58:26.228Z,82.10
2017-09-06T22:00:53.755Z,81.80
2017-09-06T22:03:21.312Z,82.50
2017-09-06T22:05:48.842Z,81.80
2017-09-06T22:08:16.394Z,81.30
2017-09-06T22:10:43.937Z,81.80
2017-09-06T22:13:11.501Z,81.80
2017-09-06T22:15:39.046Z,81.30
2017-09-06T22:18:06.583Z,81.50
2017-09-06T22:20:34.099Z,82.20
2017-09-06T22:23:01.663Z,81.90
2017-09-06T22:25:30.486Z,82.00
2017-09-06T22:27:59.182Z,82.00
2017-09-06T22:30:26.705Z,81.90
2017-09-06T22:32:54.271Z,81.60
2017-09-06T22:35:21.920Z,81.60
2017-09-06T22:37:49.447Z,81.80
2017-09-06T22:40:17.019Z,81.90
2017-09-06T22:42:44.599Z,82.20
2017-09-06T22:45:12.146Z,82.80
2017-09-06T22:47:39.681Z,82.80
2017-09-06T22:50:07.224Z,82.90
2017-09-06T22:52:34.759Z,83.10
2017-09-06T22:55:02.323Z,83.10
2017-09-06T22:57:29.858Z,83.10
2017-09-06T22:59:57.390Z,83.90
2017-09-06T23:02:24.944Z,84.00
2017-09-06T23:04:52.465Z,82.90
2017-09-06T23:07:19.997Z,82.80
2017-09-06T23:09:47.512Z,83.00
2017-09-06T23:12:15.043Z,83.10
2017-09-06T23:14:42.570Z,83.00
2017-09-06T23:17:10.127Z,83.20
2017-09-06T23:19:37.635Z,83.30
2017-09-06T23:22:05.170Z,84.00
2017-09-06T23:24:32.684Z,83.40
2017-09-06T23:27:00.227Z,83.90
2017-09-06T23:29:28.268Z,83.50
2017-09-06T23:31:55.806Z,83.40
2017-09-06T23:34:23.367Z,83.20
2017-09-06T23:36:50.884Z,83.10
2017-09-06T23:39:18.440Z,82.70
2017-09-06T23:41:45.972Z,82.50
2017-09-06T23:44:13.528Z,82.50
2017-09-06T23:46:41.056Z,82.40
2017-09-06T23:49:08.618Z,82.10
2017-09-06T23:51:36.139Z,82.40
2017-09-06T23:54:03.699Z,82.30
2017-09-06T23:56:31.233Z,82.50
2017-09-06T23:58:59.155Z,82.60
